Time;durP1;ratioP1;P1;durP2;ratioP2;P2;SDS_P1;SDS_P2;PMS_P1;PMS_P2;Temp;Humidity;BMP_temperature;BMP_pressure;BME280_temperature;BME280_humidity;BME280_pressure;Samples;Min_cycle;Max_cycle;Signal;HPM_P1;HPM_P2
2023/12/23 00:01:08;;;;;;;5.05;1.50;;;;;;;4.73;83.40;99442.66;7390340;19;20396;-62
2023/12/23 00:03:34;;;;;;;8.18;1.70;;;;;;;4.73;83.69;99494.38;7391083;19;20421;-61
2023/12/23 00:06:01;;;;;;;8.43;1.50;;;;;;;4.71;83.33;99507.69;7392818;19;20364;-63
2023/12/23 00:08:28;;;;;;;7.20;1.90;;;;;;;4.65;83.46;99492.59;7391537;19;20465;-61
2023/12/23 00:10:56;;;;;;;7.35;1.90;;;;;;;4.67;84.03;99480.91;7392347;19;20364;-61
2023/12/23 00:13:22;;;;;;;7.07;1.50;;;;;;;4.62;84.34;99504.25;7392931;19;20352;-61
2023/12/23 00:15:49;;;;;;;9.45;1.95;;;;;;;4.54;84.55;99509.50;7392281;19;20364;-59
2023/12/23 00:18:16;;;;;;;6.93;1.60;;;;;;;4.56;84.78;99488.34;7391947;19;20356;-61
2023/12/23 00:20:43;;;;;;;5.10;1.40;;;;;;;4.41;84.90;99531.00;7388867;19;20824;-61
2023/12/23 00:23:11;;;;;;;4.28;1.40;;;;;;;4.38;85.62;99523.47;7391129;19;20974;-60
2023/12/23 00:25:38;;;;;;;7.30;1.35;;;;;;;4.37;85.89;99510.50;7393240;19;20356;-62
2023/12/23 00:28:06;;;;;;;5.18;1.75;;;;;;;4.31;86.80;99527.72;7392478;19;20389;-62
2023/12/23 00:30:33;;;;;;;6.15;1.38;;;;;;;4.23;87.21;99525.91;7391514;19;20388;-61
2023/12/23 00:32:59;;;;;;;7.28;1.60;;;;;;;4.16;88.35;99534.59;7391347;19;20348;-60
2023/12/23 00:35:26;;;;;;;6.97;1.65;;;;;;;4.14;88.99;99539.19;7390735;19;20388;-62
2023/12/23 00:37:53;;;;;;;8.77;1.70;;;;;;;4.09;89.81;99550.16;7390262;19;20393;-60
2023/12/23 00:40:21;;;;;;;9.07;1.90;;;;;;;4.06;90.30;99551.31;7386969;19;20375;-59
2023/12/23 00:42:48;;;;;;;7.97;1.90;;;;;;;4.00;90.27;99554.59;7387711;19;20372;-60
2023/12/23 00:45:15;;;;;;;8.43;2.00;;;;;;;4.00;90.57;99545.91;7391257;19;20380;-62
2023/12/23 00:47:41;;;;;;;9.02;2.40;;;;;;;3.95;89.95;99548.16;7391565;19;20377;-61
2023/12/23 00:50:09;;;;;;;6.60;1.97;;;;;;;3.96;90.10;99565.56;7391533;19;20369;-57
2023/12/23 00:52:35;;;;;;;9.05;2.22;;;;;;;3.95;90.29;99564.72;7391791;19;20364;-61
2023/12/23 00:55:02;;;;;;;10.63;2.58;;;;;;;3.97;90.31;99578.50;7389515;19;20371;-62
2023/12/23 00:57:29;;;;;;;11.43;2.47;;;;;;;3.91;90.30;99594.91;7390647;19;20699;-62
2023/12/23 00:59:56;;;;;;;8.50;2.17;;;;;;;3.86;90.35;99569.13;7390343;19;20360;-60
2023/12/23 01:02:23;;;;;;;11.27;2.77;;;;;;;3.89;90.11;99578.50;7388169;19;20698;-62
2023/12/23 01:04:50;;;;;;;10.02;2.28;;;;;;;3.85;89.54;99595.53;7388387;19;20865;-62
2023/12/23 01:07:16;;;;;;;12.38;2.75;;;;;;;3.85;89.39;99600.78;7390459;19;20373;-62
2023/12/23 01:09:43;;;;;;;7.30;2.00;;;;;;;3.84;88.66;99599.13;7390559;19;20450;-61
2023/12/23 01:12:09;;;;;;;6.13;1.70;;;;;;;3.84;88.78;99594.69;7387536;19;20376;-61
2023/12/23 01:14:36;;;;;;;8.40;2.15;;;;;;;3.83;89.21;99608.81;7387848;19;20348;-60
2023/12/23 01:17:03;;;;;;;6.05;1.70;;;;;;;3.76;89.49;99614.81;7390011;19;20379;-62
2023/12/23 01:19:30;;;;;;;6.45;2.00;;;;;;;3.77;89.76;99612.06;7390934;19;20345;-61
2023/12/23 01:21:57;;;;;;;7.60;1.85;;;;;;;3.75;89.70;99611.38;7389488;19;21211;-61
2023/12/23 01:24:24;;;;;;;8.30;1.90;;;;;;;3.71;90.25;99630.22;7390193;19;20389;-59
2023/12/23 01:26:51;;;;;;;8.13;2.00;;;;;;;3.72;90.23;99639.72;7388894;19;21160;-58
2023/12/23 01:29:18;;;;;;;11.20;2.17;;;;;;;3.68;90.51;99623.50;7390170;19;21097;-60
2023/12/23 01:31:45;;;;;;;7.28;1.85;;;;;;;3.70;90.61;99618.91;7388366;19;20372;-62
2023/12/23 01:34:12;;;;;;;7.57;1.95;;;;;;;3.64;90.66;99638.72;7385893;19;20403;-62
2023/12/23 01:36:38;;;;;;;10.25;2.47;;;;;;;3.71;90.58;99630.22;7390027;19;20356;-62
2023/12/23 01:39:05;;;;;;;8.95;2.20;;;;;;;3.68;90.31;99621.69;7390032;19;20353;-60
2023/12/23 01:41:32;;;;;;;8.23;2.25;;;;;;;3.70;90.36;99629.41;7387774;19;20376;-62
2023/12/23 01:43:58;;;;;;;12.40;2.30;;;;;;;3.74;90.43;99640.38;7381755;19;20360;-62
2023/12/23 01:46:26;;;;;;;9.05;2.00;;;;;;;3.77;90.62;99626.97;7388119;19;20356;-62
2023/12/23 01:48:54;;;;;;;9.70;2.17;;;;;;;3.77;90.40;99619.09;7387304;19;20344;-62
2023/12/23 01:51:21;;;;;;;8.60;2.33;;;;;;;3.81;90.39;99621.25;7387897;19;20374;-63
2023/12/23 01:53:49;;;;;;;15.65;2.78;;;;;;;3.83;90.30;99629.78;7390884;19;20360;-60
2023/12/23 01:56:16;;;;;;;12.07;3.00;;;;;;;3.85;89.95;99619.97;7396691;19;20360;-62
2023/12/23 01:58:43;;;;;;;9.63;2.50;;;;;;;3.90;89.91;99632.59;7395373;19;20372;-62
2023/12/23 02:01:12;;;;;;;14.63;2.80;;;;;;;3.94;89.91;99631.31;7394150;19;20366;-62
2023/12/23 02:03:40;;;;;;;10.73;2.80;;;;;;;3.97;89.80;99622.28;7397407;19;20369;-63
2023/12/23 02:06:07;;;;;;;12.63;2.75;;;;;;;4.01;89.05;99615.75;7395413;19;20372;-63
2023/12/23 02:08:34;;;;;;;11.38;2.72;;;;;;;4.06;88.67;99630.03;7395131;19;20364;-61
2023/12/23 02:11:05;;;;;;;12.73;3.10;;;;;;;4.13;88.65;99651.22;7395457;19;20385;-61
2023/12/23 02:13:45;;;;;;;12.63;2.92;;;;;;;4.13;88.05;99626.78;7396975;19;20372;-63
2023/12/23 02:16:12;;;;;;;8.68;2.40;;;;;;;4.17;88.28;99625.50;7395085;19;20352;-60
2023/12/23 02:18:40;;;;;;;14.27;3.00;;;;;;;4.20;87.71;99633.03;7397153;19;20352;-62
2023/12/23 02:21:07;;;;;;;9.23;2.40;;;;;;;4.20;87.76;99619.91;7394363;19;20549;-61
2023/12/23 02:23:34;;;;;;;13.05;2.85;;;;;;;4.23;87.93;99632.69;7396682;19;20375;-60
2023/12/23 02:26:04;;;;;;;11.00;2.70;;;;;;;4.22;87.80;99636.31;7394145;19;20384;-60
2023/12/23 02:28:32;;;;;;;10.55;2.75;;;;;;;4.27;87.42;99637.50;7396290;19;20460;-61
2023/12/23 02:31:00;;;;;;;11.63;2.47;;;;;;;4.27;87.45;99626.16;7394982;19;20377;-61
2023/12/23 02:33:27;;;;;;;11.88;2.58;;;;;;;4.30;87.41;99623.22;7394735;19;20364;-61
2023/12/23 02:35:53;;;;;;;9.15;2.50;;;;;;;4.33;87.45;99625.50;7396086;19;20364;-61
2023/12/23 02:38:22;;;;;;;12.90;2.80;;;;;;;4.37;87.58;99626.84;7395044;19;20356;-61
2023/12/23 02:40:49;;;;;;;10.32;2.60;;;;;;;4.35;87.87;99618.28;7392105;19;20475;-61
2023/12/23 02:43:15;;;;;;;13.17;2.87;;;;;;;4.35;87.59;99626.16;7393516;19;20380;-62
2023/12/23 02:45:42;;;;;;;12.88;2.67;;;;;;;4.39;87.81;99632.75;7393261;19;20372;-62
2023/12/23 02:48:09;;;;;;;13.65;2.85;;;;;;;4.42;87.85;99619.31;7395305;19;20364;-63
2023/12/23 02:50:37;;;;;;;13.17;3.03;;;;;;;4.44;88.23;99621.75;7393988;19;20368;-62
2023/12/23 02:53:03;;;;;;;14.00;2.75;;;;;;;4.45;87.86;99642.59;7396138;19;20389;-60
2023/12/23 02:55:32;;;;;;;12.02;3.40;;;;;;;4.52;88.19;99626.22;7396091;19;20816;-61
2023/12/23 02:57:59;;;;;;;11.83;2.73;;;;;;;4.52;88.02;99621.78;7395574;19;20353;-61
2023/12/23 03:00:25;;;;;;;10.82;2.60;;;;;;;4.52;88.16;99628.84;7386042;19;20423;-62
2023/12/23 03:02:52;;;;;;;16.23;3.17;;;;;;;4.60;87.84;99621.78;7392543;19;20872;-59
2023/12/23 03:05:19;;;;;;;12.15;2.80;;;;;;;4.62;87.92;99625.06;7392292;19;20364;-60
2023/12/23 03:07:47;;;;;;;12.23;2.90;;;;;;;4.65;87.59;99619.50;7395706;19;20361;-62
2023/12/23 03:10:15;;;;;;;13.10;3.00;;;;;;;4.73;87.11;99615.22;7393537;19;20368;-61
2023/12/23 03:12:42;;;;;;;12.20;3.28;;;;;;;4.71;86.78;99628.53;7394755;19;20349;-62
2023/12/23 03:15:09;;;;;;;12.45;3.10;;;;;;;4.81;86.38;99618.69;7392127;19;20364;-61
2023/12/23 03:17:35;;;;;;;13.20;2.97;;;;;;;4.85;86.20;99612.13;7394076;19;20367;-61
2023/12/23 03:20:02;;;;;;;13.55;2.72;;;;;;;4.84;85.01;99623.59;7393232;19;20364;-62
2023/12/23 03:22:29;;;;;;;13.40;2.70;;;;;;;4.93;84.72;99639.38;7391521;19;20955;-59
2023/12/23 03:24:56;;;;;;;14.38;3.10;;;;;;;4.99;84.49;99620.31;7393535;19;20428;-61
2023/12/23 03:27:23;;;;;;;11.03;2.90;;;;;;;5.03;84.85;99621.63;7394376;19;20408;-61
2023/12/23 03:29:49;;;;;;;13.52;3.28;;;;;;;5.04;85.09;99639.06;7391204;19;20465;-61
2023/12/23 03:32:16;;;;;;;10.55;2.80;;;;;;;5.02;85.49;99617.38;7387941;19;20372;-62
2023/12/23 03:34:43;;;;;;;10.93;2.67;;;;;;;4.99;86.30;99633.47;7392934;19;20453;-61
2023/12/23 03:37:11;;;;;;;13.73;2.85;;;;;;;4.94;87.96;99627.88;7390601;19;20368;-64
2023/12/23 03:39:37;;;;;;;13.82;2.78;;;;;;;4.79;88.79;99646.94;7395096;19;20364;-64
2023/12/23 03:42:04;;;;;;;14.48;3.47;;;;;;;4.72;89.74;99629.34;7390364;19;20353;-65
2023/12/23 03:44:30;;;;;;;11.95;2.90;;;;;;;4.68;90.48;99618.34;7394621;19;20734;-65
2023/12/23 03:46:57;;;;;;;13.17;3.13;;;;;;;4.61;91.26;99612.94;7392731;19;20356;-66
2023/12/23 03:49:24;;;;;;;17.00;3.83;;;;;;;4.61;92.18;99612.09;7395359;19;20364;-66
2023/12/23 03:51:51;;;;;;;12.82;2.85;;;;;;;4.51;92.47;99617.50;7394382;19;20332;-68
2023/12/23 03:54:18;;;;;;;12.73;3.00;;;;;;;4.46;93.35;99619.78;7389659;19;20441;-69
2023/12/23 03:56:44;;;;;;;13.68;3.35;;;;;;;4.42;94.42;99628.97;7390988;19;20492;-70
2023/12/23 03:59:15;;;;;;;12.90;3.17;;;;;;;4.33;94.54;99620.25;7394315;19;20369;-69
2023/12/23 04:01:45;;;;;;;15.57;3.20;;;;;;;4.29;95.00;99608.44;7390642;19;20348;-69
2023/12/23 04:04:12;;;;;;;14.48;3.50;;;;;;;4.25;95.75;99592.19;7394627;19;20353;-68
2023/12/23 04:06:39;;;;;;;15.65;3.72;;;;;;;4.26;96.45;99593.03;7393682;19;20356;-68
2023/12/23 04:09:06;;;;;;;11.60;3.03;;;;;;;4.24;96.82;99595.78;7392279;19;20363;-68
2023/12/23 04:11:36;;;;;;;16.90;3.63;;;;;;;4.27;97.21;99589.41;7390048;19;20353;-68
2023/12/23 04:14:03;;;;;;;13.43;3.22;;;;;;;4.21;97.27;99574.31;7391462;19;20712;-68
2023/12/23 04:16:30;;;;;;;13.05;3.25;;;;;;;4.23;97.44;99567.06;7387980;19;20380;-68
2023/12/23 04:18:57;;;;;;;18.98;4.05;;;;;;;4.24;97.43;99569.53;7391964;19;20435;-67
2023/12/23 04:21:24;;;;;;;14.57;3.25;;;;;;;4.22;97.48;99570.69;7390504;19;20868;-67
2023/12/23 04:23:50;;;;;;;15.45;3.38;;;;;;;4.27;97.43;99568.41;7392633;19;20373;-67
2023/12/23 04:26:17;;;;;;;13.75;3.60;;;;;;;4.31;97.41;99559.22;7391255;19;20345;-67
2023/12/23 04:28:44;;;;;;;12.98;3.58;;;;;;;4.31;97.24;99568.91;7389042;19;20352;-67
2023/12/23 04:31:11;;;;;;;13.77;2.85;;;;;;;4.35;97.55;99563.16;7388834;19;20833;-67
2023/12/23 04:33:38;;;;;;;10.38;2.58;;;;;;;4.32;97.57;99555.63;7391987;19;20341;-67
2023/12/23 04:36:06;;;;;;;13.77;3.20;;;;;;;4.34;97.33;99572.03;7390357;19;20362;-67
2023/12/23 04:38:35;;;;;;;13.30;2.75;;;;;;;4.36;98.25;99562.19;7391341;19;20867;-67
2023/12/23 04:41:02;;;;;;;14.35;2.92;;;;;;;4.36;98.32;99559.56;7391052;19;20351;-67
2023/12/23 04:43:30;;;;;;;14.00;2.80;;;;;;;4.36;98.70;99567.44;7389823;19;20505;-67
2023/12/23 04:45:57;;;;;;;14.63;3.03;;;;;;;4.38;99.03;99554.13;7391714;19;20420;-67
2023/12/23 04:48:27;;;;;;;12.35;2.90;;;;;;;4.39;98.71;99559.22;7389665;19;20402;-67
2023/12/23 04:50:54;;;;;;;12.90;3.20;;;;;;;4.44;99.21;99542.97;7388674;19;20352;-67
2023/12/23 04:53:25;;;;;;;13.90;2.80;;;;;;;4.44;99.48;99562.19;7393594;19;20368;-67
2023/12/23 04:55:51;;;;;;;11.80;2.93;;;;;;;4.44;99.37;99543.81;7391940;19;20887;-67
2023/12/23 04:58:18;;;;;;;15.07;3.38;;;;;;;4.45;100.00;99542.81;7392146;19;20496;-67
2023/12/23 05:00:46;;;;;;;13.85;3.08;;;;;;;4.46;100.00;99547.09;7387672;19;20372;-67
2023/12/23 05:03:14;;;;;;;13.43;3.30;;;;;;;4.49;100.00;99540.69;7388001;19;20863;-67
2023/12/23 05:05:42;;;;;;;12.77;2.47;;;;;;;4.47;100.00;99532.97;7388840;19;20848;-67
2023/12/23 05:08:09;;;;;;;11.90;2.83;;;;;;;4.48;100.00;99528.53;7389519;19;20344;-67
2023/12/23 05:10:36;;;;;;;16.05;3.05;;;;;;;4.48;100.00;99545.13;7388593;19;20372;-68
2023/12/23 05:13:03;;;;;;;14.48;3.00;;;;;;;4.46;100.00;99533.97;7392030;19;20352;-68
2023/12/23 05:15:30;;;;;;;10.93;2.83;;;;;;;4.48;100.00;99532.00;7388204;19;20368;-67
2023/12/23 05:17:57;;;;;;;12.18;2.50;;;;;;;4.46;100.00;99531.34;7389242;19;20882;-67
2023/12/23 05:20:24;;;;;;;13.50;2.90;;;;;;;4.47;100.00;99540.84;7389913;19;20372;-67
2023/12/23 05:22:51;;;;;;;11.43;2.72;;;;;;;4.49;100.00;99536.25;7386511;19;20452;-67
2023/12/23 05:25:18;;;;;;;11.27;2.67;;;;;;;4.50;100.00;99516.06;7390944;19;20361;-67
2023/12/23 05:27:45;;;;;;;9.80;2.70;;;;;;;4.49;100.00;99520.50;7392169;19;20356;-67
2023/12/23 05:30:12;;;;;;;12.23;2.65;;;;;;;4.51;100.00;99501.97;7391618;19;20474;-68
2023/12/23 05:32:39;;;;;;;9.77;2.63;;;;;;;4.51;100.00;99519.53;7388229;19;20364;-68
2023/12/23 05:35:06;;;;;;;15.18;3.00;;;;;;;4.54;100.00;99500.81;7391441;19;20400;-67
2023/12/23 05:37:33;;;;;;;15.93;3.50;;;;;;;4.55;100.00;99497.19;7392077;19;20372;-67
2023/12/23 05:40:00;;;;;;;15.07;2.90;;;;;;;4.54;100.00;99492.94;7391650;19;20691;-67
2023/12/23 05:42:27;;;;;;;14.88;3.13;;;;;;;4.55;100.00;99487.53;7390992;19;20368;-68
2023/12/23 05:44:54;;;;;;;14.20;2.90;;;;;;;4.55;100.00;99482.28;7391294;19;20340;-68
2023/12/23 05:47:20;;;;;;;11.57;2.90;;;;;;;4.54;100.00;99488.50;7391994;19;20408;-67
2023/12/23 05:49:47;;;;;;;8.45;2.22;;;;;;;4.54;100.00;99485.06;7391740;19;20352;-67
2023/12/23 05:52:14;;;;;;;11.43;2.85;;;;;;;4.55;100.00;99476.16;7392410;19;20908;-68
2023/12/23 05:54:40;;;;;;;9.40;2.38;;;;;;;4.48;100.00;99483.91;7389670;19;20844;-69
2023/12/23 05:57:07;;;;;;;10.18;2.28;;;;;;;4.45;100.00;99482.44;7392022;19;20352;-69
2023/12/23 05:59:34;;;;;;;8.93;1.85;;;;;;;4.41;100.00;99475.06;7389766;19;20380;-69
2023/12/23 06:02:00;;;;;;;9.30;2.40;;;;;;;4.43;100.00;99468.63;7389673;19;20345;-68
2023/12/23 06:04:28;;;;;;;7.80;2.00;;;;;;;4.38;100.00;99475.38;7391691;19;20672;-69
2023/12/23 06:06:54;;;;;;;7.33;1.60;;;;;;;4.36;100.00;99501.81;7389816;19;20365;-69
2023/12/23 06:09:21;;;;;;;7.15;1.73;;;;;;;4.38;100.00;99460.44;7392479;19;20384;-68
2023/12/23 06:11:48;;;;;;;6.28;1.50;;;;;;;4.37;100.00;99461.41;7390684;19;20378;-69
2023/12/23 06:14:14;;;;;;;6.40;1.70;;;;;;;4.37;100.00;99447.47;7390307;19;20408;-69
2023/12/23 06:16:41;;;;;;;8.43;1.92;;;;;;;4.41;100.00;99436.47;7388269;19;20376;-69
2023/12/23 06:19:08;;;;;;;8.85;1.90;;;;;;;4.39;100.00;99429.75;7390183;19;20353;-68
2023/12/23 06:21:35;;;;;;;6.85;1.60;;;;;;;4.36;100.00;99441.41;7392079;19;20365;-69
2023/12/23 06:24:03;;;;;;;6.68;1.80;;;;;;;4.37;100.00;99435.16;7388714;19;20332;-68
2023/12/23 06:26:29;;;;;;;7.13;1.65;;;;;;;4.39;100.00;99430.56;7389517;19;20398;-69
2023/12/23 06:28:56;;;;;;;6.55;1.73;;;;;;;4.39;100.00;99424.50;7390843;19;20377;-68
2023/12/23 06:31:22;;;;;;;6.47;1.50;;;;;;;4.36;100.00;99428.28;7387846;19;20377;-68
2023/12/23 06:33:49;;;;;;;7.57;1.60;;;;;;;4.36;100.00;99430.91;7391266;19;20364;-69
2023/12/23 06:36:16;;;;;;;6.35;1.58;;;;;;;4.34;100.00;99427.63;7389159;19;20702;-70
2023/12/23 06:38:43;;;;;;;6.85;1.90;;;;;;;4.33;100.00;99425.16;7391365;19;20348;-69
2023/12/23 06:41:11;;;;;;;7.30;1.63;;;;;;;4.29;100.00;99433.38;7395686;19;20855;-70
2023/12/23 06:43:38;;;;;;;6.38;1.80;;;;;;;4.32;100.00;99419.09;7395397;19;20373;-70
2023/12/23 06:46:17;;;;;;;6.90;1.60;;;;;;;4.28;100.00;99417.78;7397241;19;20369;-69
2023/12/23 06:48:44;;;;;;;5.72;1.70;;;;;;;4.26;100.00;99419.75;7394142;19;20733;-70
2023/12/23 06:51:11;;;;;;;7.03;1.60;;;;;;;4.24;100.00;99401.53;7396274;19;20357;-70
2023/12/23 06:53:38;;;;;;;5.90;1.55;;;;;;;4.25;100.00;99411.06;7396646;19;20373;-70
2023/12/23 06:56:06;;;;;;;6.00;1.67;;;;;;;4.26;100.00;99407.44;7396209;19;20365;-71
2023/12/23 06:58:32;;;;;;;7.53;1.60;;;;;;;4.23;100.00;99409.56;7396884;19;20360;-71
2023/12/23 07:00:59;;;;;;;6.50;1.67;;;;;;;4.22;100.00;99407.94;7393092;19;20372;-71
2023/12/23 07:03:26;;;;;;;6.13;1.42;;;;;;;4.22;100.00;99411.38;7395427;19;20874;-70
2023/12/23 07:05:53;;;;;;;5.65;1.45;;;;;;;4.16;100.00;99408.59;7397741;19;20902;-71
2023/12/23 07:08:19;;;;;;;4.82;1.17;;;;;;;4.13;100.00;99408.94;7395598;19;20348;-71
2023/12/23 07:10:46;;;;;;;5.57;1.30;;;;;;;4.14;100.00;99400.06;7393226;19;20329;-71
2023/12/23 07:13:13;;;;;;;4.85;1.30;;;;;;;4.13;100.00;99406.31;7397031;19;20384;-71
2023/12/23 07:15:40;;;;;;;4.72;1.30;;;;;;;4.11;100.00;99405.66;7397527;19;20348;-71
2023/12/23 07:18:07;;;;;;;5.05;1.33;;;;;;;4.09;100.00;99387.47;7395505;19;20349;-71
2023/12/23 07:20:34;;;;;;;4.32;1.40;;;;;;;4.06;100.00;99378.13;7396650;19;20368;-72
2023/12/23 07:23:01;;;;;;;4.75;1.30;;;;;;;4.05;100.00;99381.72;7396154;19;20367;-70
2023/12/23 07:25:28;;;;;;;6.80;1.40;;;;;;;4.09;100.00;99385.66;7396484;19;20919;-70
2023/12/23 07:27:54;;;;;;;4.57;1.17;;;;;;;4.08;100.00;99381.41;7394940;19;20356;-70
2023/12/23 07:30:21;;;;;;;4.53;1.00;;;;;;;4.05;100.00;99376.47;7395044;19;20364;-70
2023/12/23 07:32:48;;;;;;;5.55;1.20;;;;;;;4.09;100.00;99371.72;7396201;19;20352;-70
2023/12/23 07:35:15;;;;;;;5.07;1.30;;;;;;;4.14;100.00;99373.84;7394048;19;20356;-70
2023/12/23 07:37:46;;;;;;;129.68;71.28;;;;;;;4.31;100.00;99375.44;7395508;19;20745;-65
2023/12/23 07:40:13;;;;;;;64.07;37.60;;;;;;;4.46;100.00;99359.81;7397177;19;20420;-66
2023/12/23 07:42:39;;;;;;;152.50;100.63;;;;;;;4.57;100.00;99369.16;7394509;19;20907;-64
2023/12/23 07:45:06;;;;;;;3.28;1.00;;;;;;;4.51;100.00;99369.84;7391215;19;20799;-69
2023/12/23 07:47:33;;;;;;;4.28;0.90;;;;;;;4.38;100.00;99365.94;7395047;19;20365;-69
2023/12/23 07:50:00;;;;;;;3.78;0.68;;;;;;;4.29;100.00;99366.91;7393220;19;20372;-69
2023/12/23 07:52:27;;;;;;;3.65;0.93;;;;;;;4.19;100.00;99363.69;7389870;19;20363;-69
2023/12/23 07:54:53;;;;;;;3.40;1.20;;;;;;;4.15;100.00;99375.50;7394186;19;20404;-70
2023/12/23 07:57:20;;;;;;;1.90;0.80;;;;;;;4.14;100.00;99365.97;7394414;19;20376;-69
2023/12/23 07:59:48;;;;;;;3.90;0.80;;;;;;;4.09;100.00;99372.53;7394432;19;20364;-69
2023/12/23 08:02:15;;;;;;;4.68;1.02;;;;;;;4.03;100.00;99375.81;7390535;19;20360;-69
2023/12/23 08:04:42;;;;;;;2.65;0.80;;;;;;;4.07;100.00;99368.44;7392904;19;20345;-69
2023/12/23 08:07:09;;;;;;;4.22;1.20;;;;;;;4.04;100.00;99372.22;7394631;19;20336;-69
2023/12/23 08:09:36;;;;;;;3.45;0.93;;;;;;;4.03;100.00;99367.94;7393303;19;20368;-69
2023/12/23 08:12:04;;;;;;;3.80;0.90;;;;;;;4.03;100.00;99367.94;7393290;19;20928;-69
2023/12/23 08:14:30;;;;;;;3.20;0.82;;;;;;;4.01;100.00;99367.28;7395515;19;20361;-69
2023/12/23 08:16:57;;;;;;;2.60;0.80;;;;;;;3.99;100.00;99369.25;7394600;19;20365;-69
2023/12/23 08:19:24;;;;;;;4.33;1.00;;;;;;;3.99;100.00;99365.81;7390480;19;20364;-69
2023/12/23 08:21:50;;;;;;;3.22;1.00;;;;;;;3.99;100.00;99361.38;7393436;19;20368;-69
2023/12/23 08:24:17;;;;;;;2.97;0.90;;;;;;;4.02;100.00;99370.75;7391223;19;20872;-69
2023/12/23 08:26:44;;;;;;;3.35;0.90;;;;;;;4.02;100.00;99371.56;7394273;19;20361;-71
2023/12/23 08:29:10;;;;;;;2.90;0.90;;;;;;;4.02;100.00;99373.38;7392243;19;20459;-69
2023/12/23 08:31:44;;;;;;;2.67;0.80;;;;;;;3.98;100.00;99370.25;7393873;19;20352;-69
2023/12/23 08:34:12;;;;;;;3.17;1.00;;;;;;;4.02;100.00;99374.19;7393002;19;20372;-69
2023/12/23 08:36:38;;;;;;;2.83;0.80;;;;;;;4.02;100.00;99370.75;7393642;19;20455;-69
2023/12/23 08:39:05;;;;;;;2.92;0.90;;;;;;;3.97;100.00;99367.78;7392897;19;20359;-69
2023/12/23 08:41:35;;;;;;;2.72;0.80;;;;;;;3.96;100.00;99364.34;7392796;19;20361;-69
2023/12/23 08:44:03;;;;;;;3.78;0.98;;;;;;;3.96;100.00;99361.72;7391245;19;20392;-69
2023/12/23 08:46:30;;;;;;;3.33;0.80;;;;;;;3.99;100.00;99358.75;7394014;19;20360;-69
2023/12/23 08:48:59;;;;;;;2.78;0.80;;;;;;;3.98;100.00;99358.94;7392147;19;20360;-69
2023/12/23 08:51:31;;;;;;;3.00;1.00;;;;;;;3.97;100.00;99363.34;7393903;19;20379;-69
2023/12/23 08:53:58;;;;;;;2.85;0.90;;;;;;;3.95;100.00;99365.31;7392708;19;20357;-68
2023/12/23 08:56:25;;;;;;;3.72;0.80;;;;;;;4.00;100.00;99363.03;7391891;19;20356;-69
2023/12/23 08:58:52;;;;;;;1.98;0.80;;;;;;;3.99;100.00;99365.81;7392071;19;20371;-68
2023/12/23 09:01:19;;;;;;;2.35;0.90;;;;;;;3.96;100.00;99371.41;7390072;19;20385;-69
2023/12/23 09:03:46;;;;;;;2.60;0.90;;;;;;;3.95;100.00;99370.56;7390848;19;20379;-68
2023/12/23 09:06:13;;;;;;;2.28;0.90;;;;;;;3.97;100.00;99365.97;7393326;19;20336;-69
2023/12/23 09:08:39;;;;;;;2.67;1.08;;;;;;;3.98;100.00;99365.00;7394148;19;20352;-69
2023/12/23 09:11:06;;;;;;;1.80;0.80;;;;;;;3.98;100.00;99375.50;7391114;19;20385;-70
2023/12/23 09:13:33;;;;;;;2.30;1.00;;;;;;;4.00;100.00;99363.03;7389940;19;20420;-71
2023/12/23 09:16:03;;;;;;;2.38;0.90;;;;;;;4.03;100.00;99370.56;7383670;19;20360;-70
2023/12/23 09:18:30;;;;;;;1.92;0.93;;;;;;;3.99;100.00;99371.88;7392783;19;20361;-70
2023/12/23 09:20:57;;;;;;;2.05;0.82;;;;;;;3.99;100.00;99371.06;7390916;19;20902;-71
2023/12/23 09:23:23;;;;;;;2.10;1.00;;;;;;;3.97;100.00;99379.09;7391590;19;20360;-70
2023/12/23 09:25:51;;;;;;;1.48;0.80;;;;;;;3.94;100.00;99371.56;7392408;19;20734;-71
2023/12/23 09:28:18;;;;;;;2.00;0.70;;;;;;;3.89;100.00;99384.34;7392790;19;20348;-70
2023/12/23 09:30:46;;;;;;;1.60;0.77;;;;;;;3.86;100.00;99377.63;7387592;19;20428;-70
2023/12/23 09:33:13;;;;;;;2.65;0.98;;;;;;;3.86;100.00;99376.81;7387616;19;20375;-70
2023/12/23 09:35:40;;;;;;;2.60;0.98;;;;;;;3.89;100.00;99381.75;7391072;19;20364;-71
2023/12/23 09:38:07;;;;;;;1.50;0.90;;;;;;;3.90;100.00;99383.38;7390950;19;20892;-71
2023/12/23 09:40:34;;;;;;;2.40;0.90;;;;;;;3.87;100.00;99383.69;7392274;19;20349;-71
2023/12/23 09:43:01;;;;;;;2.90;0.82;;;;;;;3.89;100.00;99394.84;7390688;19;20761;-71
2023/12/23 09:45:30;;;;;;;3.00;1.00;;;;;;;3.87;100.00;99402.06;7391208;19;20353;-71
2023/12/23 09:47:57;;;;;;;2.03;0.90;;;;;;;3.88;100.00;99406.31;7390173;19;20906;-71
2023/12/23 09:50:24;;;;;;;2.20;0.88;;;;;;;3.84;100.00;99411.06;7390985;19;20379;-71
2023/12/23 09:52:52;;;;;;;1.92;0.80;;;;;;;3.81;100.00;99413.22;7392001;19;20365;-71
2023/12/23 09:55:19;;;;;;;1.85;0.80;;;;;;;3.76;100.00;99421.56;7391635;19;20365;-71
2023/12/23 09:57:47;;;;;;;2.50;1.00;;;;;;;3.75;100.00;99413.84;7392215;19;20363;-71
2023/12/23 10:00:14;;;;;;;1.85;0.73;;;;;;;3.70;100.00;99416.13;7391337;19;20348;-71
2023/12/23 10:02:41;;;;;;;2.00;0.80;;;;;;;3.66;100.00;99413.84;7391582;19;20426;-71
2023/12/23 10:05:08;;;;;;;1.38;0.70;;;;;;;3.60;100.00;99403.19;7387177;19;20709;-71
2023/12/23 10:07:35;;;;;;;1.70;0.60;;;;;;;3.57;100.00;99409.56;7391544;19;20363;-71
2023/12/23 10:10:02;;;;;;;1.85;0.80;;;;;;;3.56;100.00;99417.59;7392026;19;20384;-71
2023/12/23 10:12:28;;;;;;;1.80;0.80;;;;;;;3.55;100.00;99426.44;7392670;19;20369;-71
2023/12/23 10:14:55;;;;;;;1.60;0.80;;;;;;;3.53;100.00;99423.16;7393591;19;20348;-71
2023/12/23 10:17:22;;;;;;;1.60;0.80;;;;;;;3.49;100.00;99422.66;7396007;19;20340;-71
2023/12/23 10:19:49;;;;;;;1.52;0.70;;;;;;;3.49;100.00;99433.16;7399011;19;20372;-71
2023/12/23 10:22:18;;;;;;;2.60;0.90;;;;;;;3.41;100.00;99420.03;7399255;19;20904;-71
2023/12/23 10:24:45;;;;;;;1.58;0.70;;;;;;;3.38;100.00;99422.94;7393881;19;20372;-71
2023/12/23 10:27:15;;;;;;;1.37;0.80;;;;;;;3.35;100.00;99412.78;7398314;19;20359;-70
2023/12/23 10:29:44;;;;;;;1.87;0.90;;;;;;;3.36;100.00;99417.03;7397970;19;20686;-71
2023/12/23 10:32:12;;;;;;;2.17;0.80;;;;;;;3.39;100.00;99419.34;7399398;19;20353;-71
2023/12/23 10:34:44;;;;;;;1.67;0.73;;;;;;;3.41;100.00;99425.25;7398826;19;20361;-71
2023/12/23 10:37:11;;;;;;;1.50;0.85;;;;;;;3.38;100.00;99426.41;7397995;19;20649;-70
2023/12/23 10:40:16;;;;;;;1.88;0.82;;;;;;;3.43;100.00;99418.06;7398914;19;20356;-71
2023/12/23 10:42:44;;;;;;;2.38;0.93;;;;;;;3.44;100.00;99417.06;7396014;19;20872;-71
2023/12/23 10:45:12;;;;;;;2.70;0.95;;;;;;;3.47;100.00;99429.88;7396412;19;20368;-71
2023/12/23 10:47:39;;;;;;;2.37;0.90;;;;;;;3.50;100.00;99423.47;7398426;19;20336;-71
2023/12/23 10:50:08;;;;;;;2.25;0.90;;;;;;;3.50;100.00;99426.91;7396950;19;20332;-71
2023/12/23 10:52:36;;;;;;;2.20;1.10;;;;;;;3.57;100.00;99420.06;7396349;19;20388;-71
2023/12/23 10:55:04;;;;;;;2.33;1.33;;;;;;;3.61;100.00;99418.75;7397038;19;20892;-71
2023/12/23 10:57:32;;;;;;;2.10;1.25;;;;;;;3.67;100.00;99425.16;7396256;19;20397;-71
2023/12/23 10:59:58;;;;;;;2.03;1.15;;;;;;;3.67;100.00;99425.97;7395469;19;20372;-71
2023/12/23 11:02:29;;;;;;;1.95;1.30;;;;;;;3.73;100.00;99423.69;7396574;19;20375;-70
2023/12/23 11:04:59;;;;;;;1.92;1.20;;;;;;;3.75;100.00;99421.72;7394980;19;20706;-70
2023/12/23 11:07:31;;;;;;;2.20;1.20;;;;;;;3.80;100.00;99435.16;7398109;19;20364;-70
2023/12/23 11:10:01;;;;;;;1.52;1.10;;;;;;;3.83;100.00;99429.59;7392255;19;20372;-70
2023/12/23 11:12:31;;;;;;;2.30;1.38;;;;;;;3.87;100.00;99420.44;7394603;19;20371;-70
2023/12/23 11:14:58;;;;;;;2.30;1.20;;;;;;;3.90;100.00;99429.78;7396125;19;20385;-70
2023/12/23 11:17:29;;;;;;;3.45;1.50;;;;;;;3.91;100.00;99431.41;7386911;19;20368;-70
2023/12/23 11:20:02;;;;;;;2.25;1.20;;;;;;;3.91;100.00;99436.66;7395511;19;20836;-71
2023/12/23 11:22:29;;;;;;;2.25;1.40;;;;;;;3.95;100.00;99428.28;7395308;19;20360;-71
2023/12/23 11:24:56;;;;;;;3.20;1.65;;;;;;;3.98;100.00;99433.22;7393236;19;20379;-71
2023/12/23 11:27:34;;;;;;;2.15;1.40;;;;;;;3.99;100.00;99436.66;7393399;19;20361;-71
2023/12/23 11:30:05;;;;;;;2.42;1.60;;;;;;;4.03;100.00;99425.66;7394495;19;20353;-71
2023/12/23 11:32:37;;;;;;;2.38;1.75;;;;;;;4.03;100.00;99430.09;7392932;19;20349;-72
2023/12/23 11:35:05;;;;;;;2.92;1.80;;;;;;;4.11;100.00;99429.28;7391920;19;20388;-72